createdAt,value
2022-09-23T00:01:19.794Z,8.03
2022-09-23T00:03:53.177Z,8.67
2022-09-23T00:06:26.339Z,8.13
2022-09-23T00:08:57.419Z,8.70
2022-09-23T00:11:33.871Z,7.13
2022-09-23T00:14:04.075Z,7.67
2022-09-23T00:16:35.881Z,7.17
2022-09-23T00:19:08.525Z,10.23
2022-09-23T00:21:38.540Z,7.70
2022-09-23T00:24:11.633Z,7.30
2022-09-23T00:26:41.640Z,8.40
2022-09-23T00:29:12.191Z,8.23
2022-09-23T00:31:42.222Z,7.00
2022-09-23T00:34:15.215Z,8.00
2022-09-23T00:36:46.277Z,6.97
2022-09-23T00:39:16.820Z,7.43
2022-09-23T00:41:46.650Z,6.67
2022-09-23T00:44:44.931Z,6.40
2022-09-23T00:47:21.848Z,7.13
2022-09-23T00:50:03.332Z,9.03
2022-09-23T00:52:34.298Z,8.67
2022-09-23T00:55:08.199Z,7.13
2022-09-23T00:57:40.416Z,7.57
2022-09-23T01:00:14.680Z,17.07
2022-09-23T01:02:45.246Z,7.17
2022-09-23T01:05:19.028Z,6.37
2022-09-23T01:07:54.508Z,7.83
2022-09-23T01:10:25.556Z,7.70
2022-09-23T01:13:06.671Z,7.97
2022-09-23T01:15:48.171Z,7.10
2022-09-23T01:18:31.573Z,7.20
2022-09-23T01:21:16.748Z,9.83
2022-09-23T01:24:18.204Z,9.57
2022-09-23T01:27:17.046Z,10.33
2022-09-23T01:30:25.208Z,7.20
2022-09-23T01:33:12.298Z,7.10
2022-09-23T01:36:06.741Z,7.43
2022-09-23T01:38:43.281Z,7.50
2022-09-23T01:41:28.339Z,7.60
2022-09-23T01:44:05.217Z,7.27
2022-09-23T01:46:41.932Z,8.37
2022-09-23T01:49:21.797Z,8.60
2022-09-23T01:51:56.912Z,8.30
2022-09-23T01:54:31.779Z,7.93
2022-09-23T01:57:07.399Z,8.80
2022-09-23T01:59:41.098Z,8.03
2022-09-23T02:02:16.997Z,7.80
2022-09-23T02:04:54.286Z,9.40
2022-09-23T02:07:29.368Z,9.13
2022-09-23T02:10:07.662Z,7.03
2022-09-23T02:12:42.162Z,7.83
2022-09-23T02:15:19.625Z,9.87
2022-09-23T02:17:53.636Z,9.57
2022-09-23T02:20:31.407Z,8.57
2022-09-23T02:23:07.738Z,7.43
2022-09-23T02:25:50.777Z,9.03
2022-09-23T02:28:28.627Z,7.23
2022-09-23T02:31:08.173Z,12.83
2022-09-23T02:33:46.984Z,7.03
2022-09-23T02:36:29.443Z,6.90
2022-09-23T02:39:04.281Z,7.77
2022-09-23T02:41:40.541Z,7.97
2022-09-23T02:44:13.806Z,7.47
2022-09-23T02:46:45.092Z,6.97
2022-09-23T02:49:19.294Z,6.50
2022-09-23T02:51:53.403Z,9.27
2022-09-23T02:54:26.899Z,6.10
2022-09-23T02:56:57.478Z,7.37
2022-09-23T02:59:27.526Z,5.50
2022-09-23T03:02:22.997Z,7.17
2022-09-23T03:05:00.413Z,7.63
2022-09-23T03:07:42.907Z,6.10
2022-09-23T03:10:20.964Z,6.67
2022-09-23T03:13:02.895Z,7.43
2022-09-23T03:15:40.564Z,5.73
2022-09-23T03:18:20.445Z,6.23
2022-09-23T03:20:54.503Z,5.83
2022-09-23T03:23:39.225Z,6.20
2022-09-23T03:26:17.232Z,5.60
2022-09-23T03:28:50.936Z,5.30
2022-09-23T03:31:21.094Z,5.30
2022-09-23T03:33:56.281Z,6.37
2022-09-23T03:36:44.678Z,5.20
2022-09-23T03:39:26.252Z,19.50
2022-09-23T03:41:59.891Z,18.67
2022-09-23T03:44:31.281Z,9.97
2022-09-23T03:47:04.845Z,7.53
2022-09-23T03:49:39.328Z,5.87
2022-09-23T03:52:10.030Z,7.23
2022-09-23T03:54:42.465Z,4.50
2022-09-23T03:57:14.158Z,5.20
2022-09-23T03:59:44.207Z,7.43
2022-09-23T04:02:15.769Z,6.17
2022-09-23T04:04:46.852Z,5.57
2022-09-23T04:07:17.005Z,6.00
2022-09-23T04:09:49.584Z,6.80
2022-09-23T04:12:20.337Z,7.77
2022-09-23T04:14:50.096Z,7.00
2022-09-23T04:17:20.385Z,7.67
2022-09-23T04:19:50.512Z,6.10
2022-09-23T04:22:20.468Z,7.33
2022-09-23T04:24:52.891Z,16.40
2022-09-23T04:27:22.793Z,9.87
2022-09-23T04:29:53.071Z,6.80
2022-09-23T04:32:24.711Z,8.27
2022-09-23T04:34:54.714Z,5.97
2022-09-23T04:37:25.229Z,6.30
2022-09-23T04:39:59.026Z,8.43
2022-09-23T04:42:31.983Z,6.63
2022-09-23T04:45:01.976Z,8.73
2022-09-23T04:47:34.632Z,7.57
2022-09-23T04:50:04.890Z,6.73
2022-09-23T04:52:34.737Z,8.73
2022-09-23T04:55:11.180Z,14.50
2022-09-23T04:57:41.436Z,7.23
2022-09-23T05:00:15.261Z,6.93
2022-09-23T05:02:46.634Z,8.17
2022-09-23T05:05:27.537Z,7.43
2022-09-23T05:07:58.856Z,8.43
2022-09-23T05:10:31.639Z,7.13
2022-09-23T05:13:01.626Z,7.60
2022-09-23T05:15:31.625Z,6.93
2022-09-23T05:18:03.112Z,8.33
2022-09-23T05:20:33.056Z,7.60
2022-09-23T05:23:03.297Z,10.87
2022-09-23T05:25:38.346Z,8.67
2022-09-23T05:28:09.594Z,6.70
2022-09-23T05:30:40.617Z,10.43
2022-09-23T05:33:10.828Z,9.30
2022-09-23T05:35:40.706Z,6.30
2022-09-23T05:38:10.500Z,7.83
2022-09-23T05:40:43.238Z,8.30
2022-09-23T05:43:14.182Z,6.70
2022-09-23T05:45:44.075Z,10.13
2022-09-23T05:48:14.345Z,8.23
2022-09-23T05:50:52.549Z,6.40
2022-09-23T05:53:23.109Z,8.20
2022-09-23T05:55:56.568Z,6.83
2022-09-23T05:58:27.763Z,6.23
2022-09-23T06:00:58.749Z,7.93
2022-09-23T06:03:29.313Z,6.47
2022-09-23T06:05:59.995Z,8.77
2022-09-23T06:08:29.949Z,7.80
2022-09-23T06:11:08.336Z,7.23
2022-09-23T06:13:39.042Z,6.23
2022-09-23T06:16:10.238Z,7.70
2022-09-23T06:18:56.323Z,7.27
2022-09-23T06:21:29.317Z,8.60
2022-09-23T06:24:00.997Z,7.23
2022-09-23T06:26:35.236Z,7.40
2022-09-23T06:29:07.796Z,7.10
2022-09-23T06:31:37.971Z,6.30
2022-09-23T06:34:12.796Z,7.20
2022-09-23T06:36:45.766Z,6.00
2022-09-23T06:39:17.371Z,5.93
2022-09-23T06:41:49.892Z,7.57
2022-09-23T06:44:19.982Z,5.93
2022-09-23T06:46:50.192Z,9.27
2022-09-23T06:49:20.513Z,5.93
2022-09-23T06:51:50.524Z,5.87
2022-09-23T06:54:20.404Z,5.87
2022-09-23T06:56:52.891Z,5.63
2022-09-23T06:59:22.703Z,6.33
2022-09-23T07:01:52.941Z,6.33
2022-09-23T07:04:27.282Z,5.50
2022-09-23T07:06:59.385Z,7.57
2022-09-23T07:09:29.463Z,6.03
2022-09-23T07:12:01.867Z,5.97
2022-09-23T07:14:31.681Z,5.67
2022-09-23T07:17:03.345Z,6.13
2022-09-23T07:19:34.234Z,6.00
2022-09-23T07:22:05.080Z,5.87
2022-09-23T07:24:35.048Z,7.40
2022-09-23T07:27:07.719Z,6.60
2022-09-23T07:29:46.264Z,5.70
2022-09-23T07:32:18.232Z,5.40
2022-09-23T07:34:48.030Z,5.53
2022-09-23T07:37:19.194Z,4.70
2022-09-23T07:39:49.159Z,5.87
2022-09-23T07:42:21.735Z,5.10
2022-09-23T07:44:53.130Z,6.47
2022-09-23T07:47:23.666Z,4.73
2022-09-23T07:49:54.234Z,5.07
2022-09-23T07:52:24.258Z,4.63
2022-09-23T07:54:54.392Z,5.17
2022-09-23T07:57:26.938Z,5.37
2022-09-23T07:59:57.387Z,5.03
2022-09-23T08:02:27.914Z,5.40
2022-09-23T08:04:57.918Z,4.83
2022-09-23T08:07:27.907Z,6.07
2022-09-23T08:09:57.884Z,5.20
2022-09-23T08:12:33.702Z,5.30
2022-09-23T08:15:04.466Z,5.30
2022-09-23T08:17:34.503Z,5.37
2022-09-23T08:20:05.210Z,5.60
2022-09-23T08:22:35.331Z,5.40
2022-09-23T08:25:08.880Z,5.00
2022-09-23T08:27:42.984Z,5.10
2022-09-23T08:30:14.600Z,5.70
2022-09-23T08:32:44.602Z,4.47
2022-09-23T08:35:14.862Z,4.23
2022-09-23T08:37:44.952Z,6.20
2022-09-23T08:40:15.353Z,4.20
2022-09-23T08:42:49.827Z,4.67
2022-09-23T08:45:24.485Z,8.83
2022-09-23T08:47:59.882Z,4.00
2022-09-23T08:50:37.247Z,4.53
2022-09-23T08:53:11.030Z,5.07
2022-09-23T08:55:47.830Z,4.60
2022-09-23T08:58:44.702Z,3.20
2022-09-23T09:01:25.637Z,6.10
2022-09-23T09:03:58.091Z,4.00
2022-09-23T09:06:41.897Z,3.50
2022-09-23T09:09:30.315Z,3.17
2022-09-23T09:12:07.598Z,4.30
2022-09-23T09:14:50.602Z,4.20
2022-09-23T09:17:34.909Z,4.40
2022-09-23T09:20:22.193Z,4.30
2022-09-23T09:23:02.215Z,3.15
2022-09-23T09:25:46.368Z,3.60
2022-09-23T09:28:24.854Z,3.10
2022-09-23T09:31:02.909Z,3.75
2022-09-23T09:33:40.543Z,2.73
2022-09-23T09:36:21.635Z,2.70
2022-09-23T09:38:51.479Z,2.80
2022-09-23T09:41:24.698Z,6.60
2022-09-23T09:43:57.714Z,3.25
2022-09-23T09:46:46.062Z,3.30
2022-09-23T09:49:25.871Z,3.10
2022-09-23T09:52:16.137Z,2.83
2022-09-23T09:54:45.875Z,2.38
2022-09-23T09:57:23.812Z,3.30
2022-09-23T09:59:53.676Z,5.63
2022-09-23T10:02:32.652Z,2.90
2022-09-23T10:05:05.009Z,2.42
2022-09-23T10:07:36.729Z,9.07
2022-09-23T10:10:32.300Z,3.35
2022-09-23T10:13:17.569Z,3.22
2022-09-23T10:15:48.263Z,2.85
2022-09-23T10:18:26.669Z,2.30
2022-09-23T10:21:03.362Z,2.40
2022-09-23T10:23:33.937Z,3.78
2022-09-23T10:26:06.340Z,1.90
2022-09-23T10:28:44.745Z,2.08
2022-09-23T10:31:16.875Z,2.17
2022-09-23T10:33:54.762Z,1.83
2022-09-23T10:36:25.007Z,1.70
2022-09-23T10:39:19.076Z,2.08
2022-09-23T10:42:15.428Z,2.25
2022-09-23T10:45:13.844Z,2.28
2022-09-23T10:47:53.720Z,2.25
2022-09-23T10:50:38.670Z,2.30
2022-09-23T10:53:21.117Z,1.83
2022-09-23T10:56:09.213Z,3.97
2022-09-23T10:59:01.874Z,2.65
2022-09-23T11:01:43.472Z,1.95
2022-09-23T11:04:35.392Z,2.20
2022-09-23T11:07:19.642Z,2.20
2022-09-23T11:10:18.567Z,2.65
2022-09-23T11:13:03.801Z,2.85
2022-09-23T11:15:46.484Z,2.35
2022-09-23T11:18:47.501Z,2.70
2022-09-23T11:21:37.130Z,3.22
2022-09-23T11:24:34.080Z,2.83
2022-09-23T11:27:16.030Z,2.70
2022-09-23T11:30:06.468Z,1.95
2022-09-23T11:36:00.461Z,2.83
2022-09-23T11:38:36.731Z,2.42
2022-09-23T11:41:17.819Z,2.40
2022-09-23T11:43:52.470Z,2.45
2022-09-23T11:46:33.125Z,2.20
2022-09-23T11:49:10.988Z,1.92
2022-09-23T11:51:46.788Z,2.13
2022-09-23T11:54:21.850Z,2.10
2022-09-23T11:56:59.675Z,2.72
2022-09-23T11:59:40.982Z,2.55
2022-09-23T12:02:23.846Z,3.15
2022-09-23T12:05:03.074Z,2.58
2022-09-23T12:07:44.316Z,2.15
2022-09-23T12:10:14.910Z,2.85
2022-09-23T12:12:57.911Z,2.17
2022-09-23T12:15:43.151Z,2.22
2022-09-23T12:18:44.813Z,2.85
2022-09-23T12:21:49.220Z,3.72
2022-09-23T12:24:37.701Z,1.58
2022-09-23T12:27:11.731Z,2.25
2022-09-23T12:29:44.865Z,2.10
2022-09-23T12:32:21.270Z,1.80
2022-09-23T12:34:54.141Z,2.08
2022-09-23T12:37:35.630Z,1.73
2022-09-23T12:40:12.899Z,2.25
2022-09-23T12:42:47.193Z,2.38
2022-09-23T12:45:39.020Z,2.72
2022-09-23T12:48:45.994Z,8.38
2022-09-23T12:51:23.784Z,2.40
2022-09-23T12:54:25.694Z,6.55
2022-09-23T12:57:17.074Z,2.28
2022-09-23T13:00:02.192Z,3.03
2022-09-23T13:02:38.626Z,2.03
2022-09-23T13:05:35.775Z,2.30
2022-09-23T13:08:10.263Z,2.00
2022-09-23T13:10:48.438Z,2.65
2022-09-23T13:13:24.928Z,4.07
2022-09-23T13:15:55.889Z,2.22
2022-09-23T13:18:57.414Z,2.38
2022-09-23T13:21:57.848Z,2.50
2022-09-23T13:24:40.224Z,2.28
2022-09-23T13:27:19.184Z,1.98
2022-09-23T13:29:58.751Z,2.15
2022-09-23T13:32:34.061Z,2.08
2022-09-23T13:35:18.026Z,3.97
2022-09-23T13:37:49.180Z,2.38
2022-09-23T13:40:23.924Z,1.98
2022-09-23T13:42:58.652Z,3.40
2022-09-23T13:45:31.265Z,2.03
2022-09-23T13:48:06.180Z,2.00
2022-09-23T13:50:41.728Z,2.80
2022-09-23T13:53:14.442Z,2.45
2022-09-23T13:55:46.921Z,6.63
2022-09-23T13:58:22.513Z,1.70
2022-09-23T14:00:53.267Z,1.98
2022-09-23T14:03:36.082Z,3.15
2022-09-23T14:06:14.714Z,2.20
2022-09-23T14:08:48.859Z,3.33
2022-09-23T14:11:20.069Z,1.83
2022-09-23T14:13:55.243Z,25.35
2022-09-23T14:16:29.215Z,11.35
2022-09-23T14:19:06.200Z,3.03
2022-09-23T14:21:40.702Z,2.55
2022-09-23T14:24:19.278Z,2.20
2022-09-23T14:26:56.918Z,1.92
2022-09-23T14:29:30.333Z,3.45
2022-09-23T14:32:04.306Z,3.22
2022-09-23T14:34:48.836Z,2.75
2022-09-23T14:37:49.124Z,1.77
2022-09-23T14:40:21.946Z,2.67
2022-09-23T14:42:56.090Z,3.65
2022-09-23T14:45:29.662Z,3.78
2022-09-23T14:48:02.547Z,2.55
2022-09-23T14:50:40.710Z,4.80
2022-09-23T14:53:43.124Z,2.15
2022-09-23T14:56:19.640Z,1.80
2022-09-23T14:58:56.811Z,3.95
2022-09-23T15:01:30.154Z,4.90
2022-09-23T15:04:00.899Z,2.67
2022-09-23T15:06:39.260Z,2.30
2022-09-23T15:09:20.481Z,1.85
2022-09-23T15:11:52.054Z,3.95
2022-09-23T15:14:37.112Z,3.00
2022-09-23T15:17:16.422Z,2.33
2022-09-23T15:19:52.713Z,3.10
2022-09-23T15:22:23.102Z,2.78
2022-09-23T15:24:56.927Z,2.75
2022-09-23T15:27:36.817Z,1.90
2022-09-23T15:30:21.374Z,5.22
2022-09-23T15:32:51.287Z,7.72
2022-09-23T15:35:25.724Z,4.45
2022-09-23T15:38:00.488Z,4.13
2022-09-23T15:40:35.968Z,2.28
2022-09-23T15:43:20.976Z,4.00
2022-09-23T15:45:53.632Z,2.53
2022-09-23T15:48:27.088Z,2.60
2022-09-23T15:50:58.922Z,3.03
2022-09-23T15:53:31.792Z,2.85
2022-09-23T15:56:05.296Z,4.35
2022-09-23T15:58:35.934Z,4.97
2022-09-23T16:01:07.239Z,3.70
2022-09-23T16:03:37.568Z,4.93
2022-09-23T16:06:08.851Z,3.20
2022-09-23T16:08:39.128Z,4.82
2022-09-23T16:11:18.333Z,3.40
2022-09-23T16:13:48.392Z,4.40
2022-09-23T16:16:21.248Z,4.30
2022-09-23T16:18:51.361Z,6.18
2022-09-23T16:21:24.089Z,6.40
2022-09-23T16:23:54.955Z,4.50
2022-09-23T16:26:30.440Z,4.10
2022-09-23T16:29:01.632Z,4.70
2022-09-23T16:31:32.916Z,6.60
2022-09-23T16:34:03.168Z,4.43
2022-09-23T16:36:35.179Z,4.20
2022-09-23T16:39:08.042Z,4.35
2022-09-23T16:41:41.213Z,5.07
2022-09-23T16:44:12.608Z,5.00
2022-09-23T16:46:43.088Z,5.60
2022-09-23T16:49:14.304Z,5.63
2022-09-23T16:51:46.910Z,15.85
2022-09-23T16:54:17.442Z,9.70
2022-09-23T16:56:50.529Z,6.85
2022-09-23T16:59:20.746Z,6.88
2022-09-23T17:02:03.039Z,9.35
2022-09-23T17:04:32.930Z,6.63
2022-09-23T17:07:05.532Z,7.47
2022-09-23T17:09:35.676Z,6.10
2022-09-23T17:12:15.732Z,7.23
2022-09-23T17:14:45.895Z,7.90
2022-09-23T17:17:15.655Z,6.40
2022-09-23T17:19:45.567Z,8.38
2022-09-23T17:22:15.380Z,7.22
2022-09-23T17:24:45.205Z,6.90
2022-09-23T17:27:18.005Z,7.65
2022-09-23T17:29:47.836Z,8.48
2022-09-23T17:32:18.248Z,7.22
2022-09-23T17:34:48.318Z,13.60
2022-09-23T17:37:18.428Z,8.23
2022-09-23T17:39:48.265Z,7.83
2022-09-23T17:42:21.131Z,8.23
2022-09-23T17:44:51.268Z,8.88
2022-09-23T17:47:21.176Z,10.90
2022-09-23T17:49:51.107Z,8.70
2022-09-23T17:52:21.929Z,11.33
2022-09-23T17:54:55.215Z,8.63
2022-09-23T17:57:27.639Z,8.83
2022-09-23T17:59:57.511Z,8.57
2022-09-23T18:02:27.551Z,8.97
2022-09-23T18:04:57.875Z,9.43
2022-09-23T18:07:27.680Z,10.20
2022-09-23T18:09:57.495Z,11.70
2022-09-23T18:12:30.084Z,11.90
2022-09-23T18:14:59.970Z,11.07
2022-09-23T18:17:29.931Z,11.80
2022-09-23T18:19:59.773Z,12.43
2022-09-23T18:22:29.680Z,12.07
2022-09-23T18:24:59.563Z,12.67
2022-09-23T18:27:32.542Z,15.93
2022-09-23T18:30:02.392Z,14.33
2022-09-23T18:32:33.349Z,12.60
2022-09-23T18:35:03.511Z,15.20
2022-09-23T18:37:33.738Z,13.93
2022-09-23T18:40:04.719Z,12.90
2022-09-23T18:42:40.329Z,11.53
2022-09-23T18:45:12.345Z,13.67
2022-09-23T18:47:54.644Z,12.53
2022-09-23T18:50:36.946Z,14.23
2022-09-23T18:53:06.823Z,12.10
2022-09-23T18:55:37.458Z,12.57
2022-09-23T18:58:10.546Z,12.23
2022-09-23T19:00:40.576Z,13.23
2022-09-23T19:03:10.682Z,13.00
2022-09-23T19:05:40.509Z,13.80
2022-09-23T19:08:10.522Z,13.30
2022-09-23T19:10:40.370Z,12.37
2022-09-23T19:13:12.844Z,18.83
2022-09-23T19:15:42.793Z,11.07
2022-09-23T19:18:12.700Z,13.27
2022-09-23T19:20:51.875Z,10.30
2022-09-23T19:23:22.656Z,10.10
2022-09-23T19:25:52.965Z,11.80
2022-09-23T19:28:25.636Z,11.53
2022-09-23T19:30:55.432Z,10.83
2022-09-23T19:33:26.344Z,13.17
2022-09-23T19:35:56.461Z,11.60
2022-09-23T19:38:26.335Z,11.73
2022-09-23T19:40:56.549Z,11.83
2022-09-23T19:43:29.729Z,11.53
2022-09-23T19:45:59.657Z,11.50
2022-09-23T19:48:29.468Z,12.83
2022-09-23T19:50:59.314Z,11.20
2022-09-23T19:53:29.181Z,12.73
2022-09-23T19:55:59.167Z,13.53
2022-09-23T19:58:31.767Z,12.47
2022-09-23T20:01:02.084Z,12.50
2022-09-23T20:03:32.182Z,10.60
2022-09-23T20:06:02.419Z,10.43
2022-09-23T20:08:32.150Z,11.43
2022-09-23T20:11:03.636Z,9.93
2022-09-23T20:13:36.668Z,10.53
2022-09-23T20:16:09.058Z,12.33
2022-09-23T20:18:39.584Z,14.43
2022-09-23T20:21:11.030Z,9.97
2022-09-23T20:23:41.165Z,9.60
2022-09-23T20:26:27.014Z,10.37
2022-09-23T20:29:01.822Z,11.00
2022-09-23T20:31:32.202Z,9.90
2022-09-23T20:34:05.740Z,9.57
2022-09-23T20:36:36.598Z,8.73
2022-09-23T20:39:09.118Z,9.70
2022-09-23T20:41:39.976Z,12.50
2022-09-23T20:44:14.839Z,9.60
2022-09-23T20:46:48.659Z,13.00
2022-09-23T20:49:19.712Z,9.90
2022-09-23T20:51:51.041Z,14.13
2022-09-23T20:54:21.055Z,11.90
2022-09-23T20:56:51.323Z,9.23
2022-09-23T20:59:23.809Z,9.30
2022-09-23T21:01:55.657Z,9.07
2022-09-23T21:04:25.732Z,8.97
2022-09-23T21:06:56.015Z,10.10
2022-09-23T21:09:27.183Z,8.70
2022-09-23T21:11:57.075Z,9.77
2022-09-23T21:14:31.528Z,10.00
2022-09-23T21:17:02.053Z,10.10
2022-09-23T21:19:32.324Z,10.60
2022-09-23T21:22:02.142Z,10.07
2022-09-23T21:25:12.099Z,9.87
2022-09-23T21:27:22.954Z,8.93
2022-09-23T21:29:55.517Z,9.97
2022-09-23T21:32:25.638Z,9.97
2022-09-23T21:34:55.669Z,10.20
2022-09-23T21:37:26.194Z,10.07
2022-09-23T21:40:08.494Z,10.30
2022-09-23T21:42:38.550Z,9.20
2022-09-23T21:45:12.500Z,9.27
2022-09-23T21:47:42.482Z,9.80
2022-09-23T21:50:12.845Z,9.27
2022-09-23T21:52:42.740Z,8.90
2022-09-23T21:55:12.865Z,9.70
2022-09-23T21:57:44.359Z,10.87
2022-09-23T22:00:17.913Z,50.30
2022-09-23T22:02:47.963Z,12.07
2022-09-23T22:05:18.107Z,10.10
2022-09-23T22:07:47.970Z,10.80
2022-09-23T22:10:17.882Z,10.03
2022-09-23T22:12:50.664Z,11.17
2022-09-23T22:15:23.549Z,9.77
2022-09-23T22:17:53.671Z,9.60
2022-09-23T22:20:23.439Z,9.67
2022-09-23T22:22:53.227Z,10.40
2022-09-23T22:25:23.219Z,10.63
2022-09-23T22:28:05.495Z,18.30
2022-09-23T22:30:54.083Z,10.87
2022-09-23T22:33:24.117Z,10.00
2022-09-23T22:35:54.015Z,9.53
2022-09-23T22:38:23.802Z,9.53
2022-09-23T22:40:54.398Z,9.50
2022-09-23T22:43:24.261Z,9.70
2022-09-23T22:45:56.750Z,9.73
2022-09-23T22:48:26.825Z,8.97
2022-09-23T22:50:56.630Z,11.10
2022-09-23T22:53:26.672Z,9.87
2022-09-23T22:56:02.906Z,8.40
2022-09-23T22:58:33.089Z,9.73
2022-09-23T23:01:05.563Z,11.73
2022-09-23T23:03:36.370Z,9.27
2022-09-23T23:06:07.566Z,9.00
2022-09-23T23:08:38.338Z,9.93
2022-09-23T23:11:10.707Z,9.20
2022-09-23T23:13:42.225Z,9.40
2022-09-23T23:16:15.747Z,8.40
2022-09-23T23:18:47.736Z,11.03
2022-09-23T23:21:19.524Z,10.00
2022-09-23T23:23:51.310Z,9.40
2022-09-23T23:26:23.154Z,9.13
2022-09-23T23:28:54.345Z,10.20
2022-09-23T23:31:32.151Z,9.73
2022-09-23T23:34:02.093Z,8.90
2022-09-23T23:36:32.156Z,9.27
2022-09-23T23:39:01.899Z,8.37
2022-09-23T23:41:31.665Z,8.83
2022-09-23T23:44:05.929Z,9.47
2022-09-23T23:46:38.575Z,10.27
2022-09-23T23:49:08.719Z,9.50
2022-09-23T23:51:38.650Z,9.23
2022-09-23T23:54:08.593Z,9.20
2022-09-23T23:56:38.754Z,8.90
2022-09-23T23:59:08.484Z,8.60
